Aller au contenu


Afficher ou pas le shoutbox Shoutbox

Mizar : (24 June 2017 - 05:59) Ça me rapelle des souvenirs de la Polyvalente. :thumbup:
serge44 : (24 June 2017 - 01:22)
cpweather : (22 June 2017 - 10:14) LFBO 221500Z AUTO VRB03KT CAVOK 38/14 Q1016 NOSIG=
cpweather : (20 June 2017 - 08:41) Toulouse 35C Td=15C Humidex 39!
Mizar : (19 June 2017 - 05:08) :winkanimated:
Redimensionner le Shoutbox

L'équipe des forums

  Nom du membre Group Forums Last Active  
Photo
admin Admin Tous les forums aoû 30 2015 13:21
Photo
cpweather Admin Tous les forums Privé
Photo
enzo82 Modérateurs Observations de phénomènes astronomiques avr 24 2014 04:22
Photo
Équipe Modération Modérateurs Observations de phénomènes astronomiques mar 08 2011 17:58
Photo
Franky Modérateurs Voir forums (6 total...) jun 13 2017 07:23
Photo
Jean-Louis Modérateurs Voir forums (2 total...) aujourd'hui, 09:23
Photo
Mesorageux Modérateurs Voir forums (6 total...) mai 13 2017 15:47
Photo
Mistral21 Modérateurs Voir forums (6 total...) mai 29 2015 16:04
Photo
Pierre Modérateurs Voir forums (6 total...) aujourd'hui, 07:47
Photo
stefano Modérateurs Voir forums (2 total...) mar 31 2015 22:58
Photo
Trapper Modérateurs Voir forums (6 total...) aujourd'hui, 07:40